sensor_id;sensor_type;location;lat;lon;timestamp;P1;durP1;ratioP1;P2;durP2;ratioP2
15307;SDS011;7755;52.208;6.964;2023-05-20T00:02:47;5.80;;;5.20;;
15307;SDS011;7755;52.208;6.964;2023-05-20T00:06:52;6.10;;;5.20;;
15307;SDS011;7755;52.208;6.964;2023-05-20T00:10:56;6.47;;;5.40;;
15307;SDS011;7755;52.208;6.964;2023-05-20T00:15:00;8.97;;;4.60;;
15307;SDS011;7755;52.208;6.964;2023-05-20T00:19:04;5.37;;;4.70;;
15307;SDS011;7755;52.208;6.964;2023-05-20T00:23:09;7.10;;;5.20;;
15307;SDS011;7755;52.208;6.964;2023-05-20T00:27:12;5.50;;;4.60;;
15307;SDS011;7755;52.208;6.964;2023-05-20T00:31:15;5.80;;;4.07;;
15307;SDS011;7755;52.208;6.964;2023-05-20T00:35:18;7.80;;;4.90;;
15307;SDS011;7755;52.208;6.964;2023-05-20T00:39:23;6.00;;;4.90;;
15307;SDS011;7755;52.208;6.964;2023-05-20T00:43:27;5.63;;;5.03;;
15307;SDS011;7755;52.208;6.964;2023-05-20T00:52:02;5.27;;;4.77;;
15307;SDS011;7755;52.208;6.964;2023-05-20T00:56:24;6.40;;;4.07;;
15307;SDS011;7755;52.208;6.964;2023-05-20T01:05:02;4.87;;;4.37;;
15307;SDS011;7755;52.208;6.964;2023-05-20T01:09:06;4.83;;;4.43;;
15307;SDS011;7755;52.208;6.964;2023-05-20T01:17:48;5.07;;;4.57;;
15307;SDS011;7755;52.208;6.964;2023-05-20T01:21:54;5.83;;;4.53;;
15307;SDS011;7755;52.208;6.964;2023-05-20T01:26:00;4.50;;;4.10;;
15307;SDS011;7755;52.208;6.964;2023-05-20T01:30:05;5.53;;;4.40;;
15307;SDS011;7755;52.208;6.964;2023-05-20T01:34:09;4.90;;;4.20;;
15307;SDS011;7755;52.208;6.964;2023-05-20T01:38:13;5.90;;;4.93;;
15307;SDS011;7755;52.208;6.964;2023-05-20T01:42:22;5.20;;;4.73;;
15307;SDS011;7755;52.208;6.964;2023-05-20T01:46:31;5.20;;;4.70;;
15307;SDS011;7755;52.208;6.964;2023-05-20T01:50:34;4.70;;;4.23;;
15307;SDS011;7755;52.208;6.964;2023-05-20T01:54:37;4.73;;;4.20;;
15307;SDS011;7755;52.208;6.964;2023-05-20T01:58:42;6.13;;;4.80;;
15307;SDS011;7755;52.208;6.964;2023-05-20T02:02:45;5.10;;;4.27;;
15307;SDS011;7755;52.208;6.964;2023-05-20T02:06:48;4.40;;;4.00;;
15307;SDS011;7755;52.208;6.964;2023-05-20T02:10:52;4.80;;;4.40;;
15307;SDS011;7755;52.208;6.964;2023-05-20T02:14:58;5.43;;;4.47;;
15307;SDS011;7755;52.208;6.964;2023-05-20T02:19:02;5.13;;;4.13;;
15307;SDS011;7755;52.208;6.964;2023-05-20T02:23:05;4.97;;;4.27;;
15307;SDS011;7755;52.208;6.964;2023-05-20T02:27:10;5.63;;;4.73;;
15307;SDS011;7755;52.208;6.964;2023-05-20T02:31:19;4.90;;;4.40;;
15307;SDS011;7755;52.208;6.964;2023-05-20T02:35:23;4.90;;;4.37;;
15307;SDS011;7755;52.208;6.964;2023-05-20T02:39:26;5.63;;;4.43;;
15307;SDS011;7755;52.208;6.964;2023-05-20T02:43:30;9.27;;;4.87;;
15307;SDS011;7755;52.208;6.964;2023-05-20T02:47:38;6.07;;;4.60;;
15307;SDS011;7755;52.208;6.964;2023-05-20T02:51:41;4.97;;;4.40;;
15307;SDS011;7755;52.208;6.964;2023-05-20T02:55:44;4.57;;;4.23;;
15307;SDS011;7755;52.208;6.964;2023-05-20T02:59:48;6.87;;;4.23;;
15307;SDS011;7755;52.208;6.964;2023-05-20T03:03:54;4.63;;;4.23;;
15307;SDS011;7755;52.208;6.964;2023-05-20T03:07:59;5.03;;;4.37;;
15307;SDS011;7755;52.208;6.964;2023-05-20T03:12:02;5.63;;;4.70;;
15307;SDS011;7755;52.208;6.964;2023-05-20T03:16:06;5.20;;;4.70;;
15307;SDS011;7755;52.208;6.964;2023-05-20T03:20:13;4.70;;;4.30;;
15307;SDS011;7755;52.208;6.964;2023-05-20T03:24:18;5.10;;;4.60;;
15307;SDS011;7755;52.208;6.964;2023-05-20T03:28:20;5.83;;;4.30;;
15307;SDS011;7755;52.208;6.964;2023-05-20T03:32:25;4.90;;;4.50;;
15307;SDS011;7755;52.208;6.964;2023-05-20T03:36:29;4.73;;;4.30;;
15307;SDS011;7755;52.208;6.964;2023-05-20T03:40:32;4.63;;;4.13;;
15307;SDS011;7755;52.208;6.964;2023-05-20T03:44:37;4.63;;;4.30;;
15307;SDS011;7755;52.208;6.964;2023-05-20T03:48:40;5.83;;;4.57;;
15307;SDS011;7755;52.208;6.964;2023-05-20T03:52:46;4.50;;;4.10;;
15307;SDS011;7755;52.208;6.964;2023-05-20T03:56:53;5.20;;;4.70;;
15307;SDS011;7755;52.208;6.964;2023-05-20T04:00:58;4.73;;;4.27;;
15307;SDS011;7755;52.208;6.964;2023-05-20T04:05:05;4.83;;;4.43;;
15307;SDS011;7755;52.208;6.964;2023-05-20T04:09:14;4.73;;;4.40;;
15307;SDS011;7755;52.208;6.964;2023-05-20T04:13:20;4.40;;;4.00;;
15307;SDS011;7755;52.208;6.964;2023-05-20T04:17:26;4.47;;;4.07;;
15307;SDS011;7755;52.208;6.964;2023-05-20T04:21:36;5.93;;;4.67;;
15307;SDS011;7755;52.208;6.964;2023-05-20T04:25:41;4.97;;;4.47;;
15307;SDS011;7755;52.208;6.964;2023-05-20T04:29:45;5.93;;;4.83;;
15307;SDS011;7755;52.208;6.964;2023-05-20T04:33:49;6.93;;;4.40;;
15307;SDS011;7755;52.208;6.964;2023-05-20T04:37:56;4.77;;;3.93;;
15307;SDS011;7755;52.208;6.964;2023-05-20T04:42:01;4.17;;;3.87;;
15307;SDS011;7755;52.208;6.964;2023-05-20T04:46:05;4.50;;;3.90;;
15307;SDS011;7755;52.208;6.964;2023-05-20T04:50:10;4.50;;;4.10;;
15307;SDS011;7755;52.208;6.964;2023-05-20T04:54:15;4.30;;;3.93;;
15307;SDS011;7755;52.208;6.964;2023-05-20T04:58:23;4.50;;;4.10;;
15307;SDS011;7755;52.208;6.964;2023-05-20T05:02:26;4.93;;;4.10;;
15307;SDS011;7755;52.208;6.964;2023-05-20T05:06:30;4.30;;;4.00;;
15307;SDS011;7755;52.208;6.964;2023-05-20T05:10:34;4.07;;;3.73;;
15307;SDS011;7755;52.208;6.964;2023-05-20T05:14:41;4.63;;;4.10;;
15307;SDS011;7755;52.208;6.964;2023-05-20T05:18:45;5.47;;;3.93;;
15307;SDS011;7755;52.208;6.964;2023-05-20T05:22:48;3.90;;;3.40;;
15307;SDS011;7755;52.208;6.964;2023-05-20T05:26:53;3.87;;;3.57;;
15307;SDS011;7755;52.208;6.964;2023-05-20T05:30:59;5.20;;;3.90;;
15307;SDS011;7755;52.208;6.964;2023-05-20T05:35:02;3.97;;;3.67;;
15307;SDS011;7755;52.208;6.964;2023-05-20T05:39:09;4.23;;;3.77;;
15307;SDS011;7755;52.208;6.964;2023-05-20T05:43:13;5.00;;;3.50;;
15307;SDS011;7755;52.208;6.964;2023-05-20T05:47:20;3.37;;;3.07;;
15307;SDS011;7755;52.208;6.964;2023-05-20T05:51:23;3.37;;;3.07;;
15307;SDS011;7755;52.208;6.964;2023-05-20T05:55:35;3.07;;;2.77;;
15307;SDS011;7755;52.208;6.964;2023-05-20T05:59:38;3.63;;;3.27;;
15307;SDS011;7755;52.208;6.964;2023-05-20T06:03:44;3.53;;;3.33;;
15307;SDS011;7755;52.208;6.964;2023-05-20T06:07:47;3.57;;;3.30;;
15307;SDS011;7755;52.208;6.964;2023-05-20T06:11:52;3.37;;;3.10;;
15307;SDS011;7755;52.208;6.964;2023-05-20T06:15:55;3.57;;;3.27;;
15307;SDS011;7755;52.208;6.964;2023-05-20T06:20:02;3.17;;;2.90;;
15307;SDS011;7755;52.208;6.964;2023-05-20T06:24:06;3.10;;;2.90;;
15307;SDS011;7755;52.208;6.964;2023-05-20T06:28:10;3.20;;;2.80;;
15307;SDS011;7755;52.208;6.964;2023-05-20T06:32:13;3.70;;;3.27;;
15307;SDS011;7755;52.208;6.964;2023-05-20T06:36:18;4.00;;;3.40;;
15307;SDS011;7755;52.208;6.964;2023-05-20T06:40:21;3.07;;;2.77;;
15307;SDS011;7755;52.208;6.964;2023-05-20T06:44:24;3.57;;;3.30;;
15307;SDS011;7755;52.208;6.964;2023-05-20T06:48:41;3.37;;;3.00;;
15307;SDS011;7755;52.208;6.964;2023-05-20T06:52:46;3.37;;;3.17;;
15307;SDS011;7755;52.208;6.964;2023-05-20T06:56:49;3.30;;;3.10;;
15307;SDS011;7755;52.208;6.964;2023-05-20T07:00:54;3.40;;;3.20;;
15307;SDS011;7755;52.208;6.964;2023-05-20T07:04:59;3.27;;;3.00;;
15307;SDS011;7755;52.208;6.964;2023-05-20T07:09:05;3.40;;;3.00;;
15307;SDS011;7755;52.208;6.964;2023-05-20T07:13:08;3.40;;;3.10;;
15307;SDS011;7755;52.208;6.964;2023-05-20T07:17:11;3.17;;;2.90;;
15307;SDS011;7755;52.208;6.964;2023-05-20T07:21:15;3.63;;;3.33;;
15307;SDS011;7755;52.208;6.964;2023-05-20T07:25:38;3.17;;;2.97;;
15307;SDS011;7755;52.208;6.964;2023-05-20T07:29:42;3.90;;;3.50;;
15307;SDS011;7755;52.208;6.964;2023-05-20T07:33:45;3.40;;;3.10;;
15307;SDS011;7755;52.208;6.964;2023-05-20T07:37:49;3.20;;;3.00;;
15307;SDS011;7755;52.208;6.964;2023-05-20T07:41:54;7.47;;;3.27;;
15307;SDS011;7755;52.208;6.964;2023-05-20T07:45:58;3.97;;;3.07;;
15307;SDS011;7755;52.208;6.964;2023-05-20T07:50:03;3.77;;;3.40;;
15307;SDS011;7755;52.208;6.964;2023-05-20T07:54:08;3.60;;;3.20;;
15307;SDS011;7755;52.208;6.964;2023-05-20T07:58:13;3.27;;;2.97;;
15307;SDS011;7755;52.208;6.964;2023-05-20T08:02:17;3.80;;;3.43;;
15307;SDS011;7755;52.208;6.964;2023-05-20T08:06:21;3.40;;;3.07;;
15307;SDS011;7755;52.208;6.964;2023-05-20T08:10:25;2.70;;;2.50;;
15307;SDS011;7755;52.208;6.964;2023-05-20T08:14:30;3.43;;;3.13;;
15307;SDS011;7755;52.208;6.964;2023-05-20T08:18:34;5.97;;;2.90;;
15307;SDS011;7755;52.208;6.964;2023-05-20T08:22:38;4.13;;;3.17;;
15307;SDS011;7755;52.208;6.964;2023-05-20T08:26:42;3.37;;;2.80;;
15307;SDS011;7755;52.208;6.964;2023-05-20T08:30:46;4.03;;;2.57;;
15307;SDS011;7755;52.208;6.964;2023-05-20T08:34:49;2.97;;;2.70;;
15307;SDS011;7755;52.208;6.964;2023-05-20T08:38:52;3.07;;;2.77;;
15307;SDS011;7755;52.208;6.964;2023-05-20T08:42:56;2.97;;;2.70;;
15307;SDS011;7755;52.208;6.964;2023-05-20T08:47:01;3.30;;;2.83;;
15307;SDS011;7755;52.208;6.964;2023-05-20T08:51:05;3.00;;;2.80;;
15307;SDS011;7755;52.208;6.964;2023-05-20T08:55:13;3.43;;;2.67;;
15307;SDS011;7755;52.208;6.964;2023-05-20T08:59:25;2.63;;;2.43;;
15307;SDS011;7755;52.208;6.964;2023-05-20T09:03:30;2.55;;;2.35;;
15307;SDS011;7755;52.208;6.964;2023-05-20T09:07:34;2.42;;;2.22;;
15307;SDS011;7755;52.208;6.964;2023-05-20T09:11:38;4.10;;;2.50;;
15307;SDS011;7755;52.208;6.964;2023-05-20T09:15:41;3.40;;;2.20;;
15307;SDS011;7755;52.208;6.964;2023-05-20T09:19:48;3.20;;;2.47;;
15307;SDS011;7755;52.208;6.964;2023-05-20T09:23:51;3.00;;;2.13;;
15307;SDS011;7755;52.208;6.964;2023-05-20T09:27:54;2.23;;;2.13;;
15307;SDS011;7755;52.208;6.964;2023-05-20T09:32:00;2.20;;;2.10;;
15307;SDS011;7755;52.208;6.964;2023-05-20T09:36:06;2.47;;;2.27;;
15307;SDS011;7755;52.208;6.964;2023-05-20T09:40:10;2.17;;;2.00;;
15307;SDS011;7755;52.208;6.964;2023-05-20T09:44:15;2.43;;;1.97;;
15307;SDS011;7755;52.208;6.964;2023-05-20T09:48:19;3.23;;;2.43;;
15307;SDS011;7755;52.208;6.964;2023-05-20T09:52:24;2.40;;;2.20;;
15307;SDS011;7755;52.208;6.964;2023-05-20T09:56:29;2.43;;;2.23;;
15307;SDS011;7755;52.208;6.964;2023-05-20T10:00:33;2.33;;;2.17;;
15307;SDS011;7755;52.208;6.964;2023-05-20T10:04:37;2.27;;;1.90;;
15307;SDS011;7755;52.208;6.964;2023-05-20T10:09:00;4.07;;;2.23;;
15307;SDS011;7755;52.208;6.964;2023-05-20T10:13:17;2.35;;;2.25;;
15307;SDS011;7755;52.208;6.964;2023-05-20T10:17:30;3.43;;;1.97;;
15307;SDS011;7755;52.208;6.964;2023-05-20T10:21:41;2.35;;;2.08;;
15307;SDS011;7755;52.208;6.964;2023-05-20T10:25:50;2.10;;;2.00;;
15307;SDS011;7755;52.208;6.964;2023-05-20T10:29:54;2.10;;;1.90;;
15307;SDS011;7755;52.208;6.964;2023-05-20T10:34:00;3.13;;;2.38;;
15307;SDS011;7755;52.208;6.964;2023-05-20T10:38:06;3.30;;;2.33;;
15307;SDS011;7755;52.208;6.964;2023-05-20T10:42:13;2.27;;;2.17;;
15307;SDS011;7755;52.208;6.964;2023-05-20T10:46:16;2.97;;;2.58;;
15307;SDS011;7755;52.208;6.964;2023-05-20T10:50:39;2.50;;;2.20;;
15307;SDS011;7755;52.208;6.964;2023-05-20T10:54:42;2.55;;;2.25;;
15307;SDS011;7755;52.208;6.964;2023-05-20T10:58:51;3.27;;;2.17;;
15307;SDS011;7755;52.208;6.964;2023-05-20T11:02:55;3.65;;;2.20;;
15307;SDS011;7755;52.208;6.964;2023-05-20T11:06:59;2.70;;;2.27;;
15307;SDS011;7755;52.208;6.964;2023-05-20T11:11:03;2.53;;;2.33;;
15307;SDS011;7755;52.208;6.964;2023-05-20T11:15:09;4.43;;;2.60;;
15307;SDS011;7755;52.208;6.964;2023-05-20T11:19:13;2.88;;;1.80;;
15307;SDS011;7755;52.208;6.964;2023-05-20T11:23:18;2.60;;;2.40;;
15307;SDS011;7755;52.208;6.964;2023-05-20T11:27:30;2.55;;;2.25;;
15307;SDS011;7755;52.208;6.964;2023-05-20T11:31:47;2.47;;;2.15;;
15307;SDS011;7755;52.208;6.964;2023-05-20T11:36:03;4.20;;;2.40;;
15307;SDS011;7755;52.208;6.964;2023-05-20T11:40:18;3.10;;;1.92;;
15307;SDS011;7755;52.208;6.964;2023-05-20T11:44:30;2.83;;;1.92;;
15307;SDS011;7755;52.208;6.964;2023-05-20T11:48:35;2.47;;;1.90;;
15307;SDS011;7755;52.208;6.964;2023-05-20T11:52:37;3.20;;;1.80;;
15307;SDS011;7755;52.208;6.964;2023-05-20T11:56:46;1.98;;;1.88;;
15307;SDS011;7755;52.208;6.964;2023-05-20T12:00:50;2.75;;;1.92;;
15307;SDS011;7755;52.208;6.964;2023-05-20T12:05:04;1.90;;;1.80;;
15307;SDS011;7755;52.208;6.964;2023-05-20T12:09:07;3.95;;;2.95;;
15307;SDS011;7755;52.208;6.964;2023-05-20T12:13:11;2.85;;;2.10;;
15307;SDS011;7755;52.208;6.964;2023-05-20T12:17:19;2.55;;;1.92;;
15307;SDS011;7755;52.208;6.964;2023-05-20T12:21:24;5.68;;;3.03;;
15307;SDS011;7755;52.208;6.964;2023-05-20T12:25:28;2.20;;;1.80;;
15307;SDS011;7755;52.208;6.964;2023-05-20T12:29:33;3.90;;;2.00;;
15307;SDS011;7755;52.208;6.964;2023-05-20T12:33:37;2.75;;;1.83;;
15307;SDS011;7755;52.208;6.964;2023-05-20T12:37:43;2.00;;;1.80;;
15307;SDS011;7755;52.208;6.964;2023-05-20T12:41:47;2.08;;;1.75;;
15307;SDS011;7755;52.208;6.964;2023-05-20T12:45:56;2.10;;;1.80;;
15307;SDS011;7755;52.208;6.964;2023-05-20T12:49:59;2.17;;;1.80;;
15307;SDS011;7755;52.208;6.964;2023-05-20T12:54:04;1.60;;;1.50;;
15307;SDS011;7755;52.208;6.964;2023-05-20T12:58:07;3.17;;;2.00;;
15307;SDS011;7755;52.208;6.964;2023-05-20T13:02:11;2.13;;;1.92;;
15307;SDS011;7755;52.208;6.964;2023-05-20T13:06:14;1.77;;;1.67;;
15307;SDS011;7755;52.208;6.964;2023-05-20T13:10:19;1.70;;;1.60;;
15307;SDS011;7755;52.208;6.964;2023-05-20T13:14:24;2.55;;;2.20;;
15307;SDS011;7755;52.208;6.964;2023-05-20T13:18:28;2.10;;;1.83;;
15307;SDS011;7755;52.208;6.964;2023-05-20T13:22:31;2.20;;;2.00;;
15307;SDS011;7755;52.208;6.964;2023-05-20T13:26:35;2.45;;;2.20;;
15307;SDS011;7755;52.208;6.964;2023-05-20T13:30:40;2.70;;;1.80;;
15307;SDS011;7755;52.208;6.964;2023-05-20T13:34:44;2.83;;;1.95;;
15307;SDS011;7755;52.208;6.964;2023-05-20T13:38:56;1.80;;;1.70;;
15307;SDS011;7755;52.208;6.964;2023-05-20T13:43:00;2.15;;;1.90;;
15307;SDS011;7755;52.208;6.964;2023-05-20T13:47:14;2.27;;;2.07;;
15307;SDS011;7755;52.208;6.964;2023-05-20T14:00:11;3.53;;;2.00;;
15307;SDS011;7755;52.208;6.964;2023-05-20T14:13:16;2.57;;;2.17;;
15307;SDS011;7755;52.208;6.964;2023-05-20T14:17:29;2.10;;;1.90;;
15307;SDS011;7755;52.208;6.964;2023-05-20T14:21:32;3.17;;;2.10;;
15307;SDS011;7755;52.208;6.964;2023-05-20T14:25:44;2.40;;;2.20;;
15307;SDS011;7755;52.208;6.964;2023-05-20T14:29:56;2.10;;;1.90;;
15307;SDS011;7755;52.208;6.964;2023-05-20T14:34:05;2.60;;;2.00;;
15307;SDS011;7755;52.208;6.964;2023-05-20T14:38:20;2.60;;;2.40;;
15307;SDS011;7755;52.208;6.964;2023-05-20T14:42:29;3.13;;;2.80;;
15307;SDS011;7755;52.208;6.964;2023-05-20T14:46:42;1.90;;;1.73;;
15307;SDS011;7755;52.208;6.964;2023-05-20T14:59:41;2.33;;;1.90;;
15307;SDS011;7755;52.208;6.964;2023-05-20T15:03:44;3.30;;;2.60;;
15307;SDS011;7755;52.208;6.964;2023-05-20T15:08:00;2.33;;;2.13;;
15307;SDS011;7755;52.208;6.964;2023-05-20T15:43:55;2.10;;;1.97;;
15307;SDS011;7755;52.208;6.964;2023-05-20T16:24:55;2.40;;;2.20;;
15307;SDS011;7755;52.208;6.964;2023-05-20T16:28:58;3.13;;;2.20;;
15307;SDS011;7755;52.208;6.964;2023-05-20T16:33:07;3.33;;;2.50;;
15307;SDS011;7755;52.208;6.964;2023-05-20T16:37:15;5.27;;;2.10;;
15307;SDS011;7755;52.208;6.964;2023-05-20T16:45:48;2.50;;;2.30;;
15307;SDS011;7755;52.208;6.964;2023-05-20T16:50:01;3.07;;;2.53;;
15307;SDS011;7755;52.208;6.964;2023-05-20T16:54:05;3.20;;;2.50;;
15307;SDS011;7755;52.208;6.964;2023-05-20T16:58:16;2.77;;;2.50;;
15307;SDS011;7755;52.208;6.964;2023-05-20T17:02:19;2.20;;;2.10;;
15307;SDS011;7755;52.208;6.964;2023-05-20T17:06:22;2.93;;;2.57;;
15307;SDS011;7755;52.208;6.964;2023-05-20T17:10:25;2.53;;;2.30;;
15307;SDS011;7755;52.208;6.964;2023-05-20T17:14:30;3.03;;;2.83;;
15307;SDS011;7755;52.208;6.964;2023-05-20T17:18:34;3.10;;;2.47;;
15307;SDS011;7755;52.208;6.964;2023-05-20T17:22:37;3.60;;;3.30;;
15307;SDS011;7755;52.208;6.964;2023-05-20T17:26:46;3.57;;;3.17;;
15307;SDS011;7755;52.208;6.964;2023-05-20T17:30:51;4.70;;;2.90;;
15307;SDS011;7755;52.208;6.964;2023-05-20T17:35:05;2.43;;;2.23;;
15307;SDS011;7755;52.208;6.964;2023-05-20T17:39:10;3.00;;;2.80;;
15307;SDS011;7755;52.208;6.964;2023-05-20T17:43:14;3.97;;;3.37;;
15307;SDS011;7755;52.208;6.964;2023-05-20T17:47:18;3.27;;;2.83;;
15307;SDS011;7755;52.208;6.964;2023-05-20T17:51:22;3.23;;;2.93;;
15307;SDS011;7755;52.208;6.964;2023-05-20T17:55:25;3.50;;;3.20;;
15307;SDS011;7755;52.208;6.964;2023-05-20T17:59:29;19.37;;;15.93;;
15307;SDS011;7755;52.208;6.964;2023-05-20T18:03:35;4.03;;;3.63;;
15307;SDS011;7755;52.208;6.964;2023-05-20T18:07:40;3.17;;;2.77;;
15307;SDS011;7755;52.208;6.964;2023-05-20T18:11:44;3.13;;;2.83;;
15307;SDS011;7755;52.208;6.964;2023-05-20T18:15:48;3.60;;;3.30;;
15307;SDS011;7755;52.208;6.964;2023-05-20T18:19:52;2.80;;;2.37;;
15307;SDS011;7755;52.208;6.964;2023-05-20T18:23:57;4.17;;;3.77;;
15307;SDS011;7755;52.208;6.964;2023-05-20T18:28:00;3.33;;;3.13;;
15307;SDS011;7755;52.208;6.964;2023-05-20T18:32:03;3.37;;;3.07;;
15307;SDS011;7755;52.208;6.964;2023-05-20T18:36:08;3.73;;;2.90;;
15307;SDS011;7755;52.208;6.964;2023-05-20T18:40:12;2.60;;;2.40;;
15307;SDS011;7755;52.208;6.964;2023-05-20T18:44:21;3.23;;;2.80;;
15307;SDS011;7755;52.208;6.964;2023-05-20T18:48:24;3.10;;;2.80;;
15307;SDS011;7755;52.208;6.964;2023-05-20T18:52:31;3.87;;;3.43;;
15307;SDS011;7755;52.208;6.964;2023-05-20T18:56:35;3.30;;;3.00;;
15307;SDS011;7755;52.208;6.964;2023-05-20T19:00:38;3.47;;;3.17;;
15307;SDS011;7755;52.208;6.964;2023-05-20T19:05:00;3.57;;;2.80;;
15307;SDS011;7755;52.208;6.964;2023-05-20T19:09:08;3.83;;;3.30;;
15307;SDS011;7755;52.208;6.964;2023-05-20T19:13:11;3.20;;;3.00;;
15307;SDS011;7755;52.208;6.964;2023-05-20T19:21:22;3.10;;;2.80;;
15307;SDS011;7755;52.208;6.964;2023-05-20T19:25:27;3.20;;;2.90;;
15307;SDS011;7755;52.208;6.964;2023-05-20T19:29:36;3.87;;;3.00;;
15307;SDS011;7755;52.208;6.964;2023-05-20T19:33:41;3.57;;;3.27;;
15307;SDS011;7755;52.208;6.964;2023-05-20T19:37:45;5.20;;;4.17;;
15307;SDS011;7755;52.208;6.964;2023-05-20T19:41:51;3.77;;;3.47;;
15307;SDS011;7755;52.208;6.964;2023-05-20T19:45:54;3.93;;;3.53;;
15307;SDS011;7755;52.208;6.964;2023-05-20T19:49:58;3.33;;;3.13;;
15307;SDS011;7755;52.208;6.964;2023-05-20T19:54:03;4.33;;;3.93;;
15307;SDS011;7755;52.208;6.964;2023-05-20T19:58:11;4.20;;;3.80;;
15307;SDS011;7755;52.208;6.964;2023-05-20T20:02:15;3.63;;;3.30;;
15307;SDS011;7755;52.208;6.964;2023-05-20T20:06:31;3.53;;;3.23;;
15307;SDS011;7755;52.208;6.964;2023-05-20T20:10:48;4.20;;;3.83;;
15307;SDS011;7755;52.208;6.964;2023-05-20T20:15:04;5.93;;;5.23;;
15307;SDS011;7755;52.208;6.964;2023-05-20T20:19:09;5.10;;;4.63;;
15307;SDS011;7755;52.208;6.964;2023-05-20T20:23:12;4.33;;;4.03;;
15307;SDS011;7755;52.208;6.964;2023-05-20T20:27:15;4.97;;;4.20;;
15307;SDS011;7755;52.208;6.964;2023-05-20T20:31:21;4.20;;;3.90;;
15307;SDS011;7755;52.208;6.964;2023-05-20T20:35:25;9.17;;;8.23;;
15307;SDS011;7755;52.208;6.964;2023-05-20T20:39:28;9.07;;;8.20;;
15307;SDS011;7755;52.208;6.964;2023-05-20T20:43:31;6.50;;;5.93;;
15307;SDS011;7755;52.208;6.964;2023-05-20T20:47:36;4.47;;;4.17;;
15307;SDS011;7755;52.208;6.964;2023-05-20T20:51:42;5.17;;;4.77;;
15307;SDS011;7755;52.208;6.964;2023-05-20T20:55:45;5.57;;;4.80;;
15307;SDS011;7755;52.208;6.964;2023-05-20T20:59:48;5.50;;;5.00;;
15307;SDS011;7755;52.208;6.964;2023-05-20T21:03:55;4.70;;;4.40;;
15307;SDS011;7755;52.208;6.964;2023-05-20T21:08:09;6.17;;;5.57;;
15307;SDS011;7755;52.208;6.964;2023-05-20T21:12:14;5.97;;;5.37;;
15307;SDS011;7755;52.208;6.964;2023-05-20T21:16:18;5.43;;;5.03;;
15307;SDS011;7755;52.208;6.964;2023-05-20T21:20:23;5.63;;;5.13;;
15307;SDS011;7755;52.208;6.964;2023-05-20T21:24:26;5.53;;;5.13;;
15307;SDS011;7755;52.208;6.964;2023-05-20T21:28:29;5.60;;;5.10;;
15307;SDS011;7755;52.208;6.964;2023-05-20T21:32:32;4.63;;;4.23;;
15307;SDS011;7755;52.208;6.964;2023-05-20T21:36:40;5.53;;;5.13;;
15307;SDS011;7755;52.208;6.964;2023-05-20T21:40:43;7.77;;;6.97;;
15307;SDS011;7755;52.208;6.964;2023-05-20T21:44:45;6.03;;;5.47;;
15307;SDS011;7755;52.208;6.964;2023-05-20T21:49:04;6.67;;;6.07;;
15307;SDS011;7755;52.208;6.964;2023-05-20T21:53:18;6.73;;;6.13;;
15307;SDS011;7755;52.208;6.964;2023-05-20T21:57:22;6.20;;;5.60;;
15307;SDS011;7755;52.208;6.964;2023-05-20T22:01:31;6.10;;;5.60;;
15307;SDS011;7755;52.208;6.964;2023-05-20T22:05:47;5.03;;;4.63;;
15307;SDS011;7755;52.208;6.964;2023-05-20T22:09:55;6.73;;;6.10;;
15307;SDS011;7755;52.208;6.964;2023-05-20T22:13:59;5.93;;;5.43;;
15307;SDS011;7755;52.208;6.964;2023-05-20T22:18:02;6.37;;;5.53;;
15307;SDS011;7755;52.208;6.964;2023-05-20T22:22:08;5.50;;;5.10;;
15307;SDS011;7755;52.208;6.964;2023-05-20T22:26:15;5.60;;;5.10;;
15307;SDS011;7755;52.208;6.964;2023-05-20T22:30:21;5.30;;;4.80;;
15307;SDS011;7755;52.208;6.964;2023-05-20T22:34:24;5.03;;;4.60;;
15307;SDS011;7755;52.208;6.964;2023-05-20T22:38:33;5.03;;;4.60;;
15307;SDS011;7755;52.208;6.964;2023-05-20T22:42:39;4.97;;;4.57;;
15307;SDS011;7755;52.208;6.964;2023-05-20T22:46:43;4.30;;;3.93;;
15307;SDS011;7755;52.208;6.964;2023-05-20T22:50:52;5.33;;;4.83;;
15307;SDS011;7755;52.208;6.964;2023-05-20T22:54:57;5.60;;;5.10;;
15307;SDS011;7755;52.208;6.964;2023-05-20T22:59:04;4.57;;;4.17;;
15307;SDS011;7755;52.208;6.964;2023-05-20T23:03:08;5.57;;;5.07;;
15307;SDS011;7755;52.208;6.964;2023-05-20T23:07:13;5.00;;;4.67;;
15307;SDS011;7755;52.208;6.964;2023-05-20T23:11:19;5.07;;;4.67;;
15307;SDS011;7755;52.208;6.964;2023-05-20T23:15:24;4.67;;;4.27;;
15307;SDS011;7755;52.208;6.964;2023-05-20T23:19:28;5.07;;;4.40;;
15307;SDS011;7755;52.208;6.964;2023-05-20T23:23:34;4.70;;;4.40;;
15307;SDS011;7755;52.208;6.964;2023-05-20T23:27:39;4.53;;;4.10;;
15307;SDS011;7755;52.208;6.964;2023-05-20T23:31:44;4.93;;;4.53;;
15307;SDS011;7755;52.208;6.964;2023-05-20T23:35:50;5.63;;;5.00;;
15307;SDS011;7755;52.208;6.964;2023-05-20T23:39:54;5.30;;;4.80;;
15307;SDS011;7755;52.208;6.964;2023-05-20T23:43:57;4.97;;;4.50;;
15307;SDS011;7755;52.208;6.964;2023-05-20T23:48:01;5.97;;;5.37;;
15307;SDS011;7755;52.208;6.964;2023-05-20T23:52:05;4.83;;;4.43;;
15307;SDS011;7755;52.208;6.964;2023-05-20T23:56:08;5.33;;;4.93;;
